Time;durP1;ratioP1;P1;durP2;ratioP2;P2;SDS_P1;SDS_P2;PMS_P1;PMS_P2;Temp;Humidity;BMP_temperature;BMP_pressure;BME280_temperature;BME280_humidity;BME280_pressure;Samples;Min_cycle;Max_cycle;Signal;HPM_P1;HPM_P2
2024/02/10 00:01:25;;;;;;;8.55;3.08;;;;;;;12.31;100.00;98481.25;5283551;27;20119;-75
2024/02/10 00:03:56;;;;;;;6.28;2.97;;;;;;;12.26;100.00;98483.81;5277510;28;20058;-76
2024/02/10 00:06:27;;;;;;;7.18;2.65;;;;;;;12.28;100.00;98481.69;5279885;28;20039;-76
2024/02/10 00:08:57;;;;;;;7.75;2.63;;;;;;;12.25;100.00;98485.69;5285679;27;20028;-75
2024/02/10 00:11:31;;;;;;;4.30;2.50;;;;;;;12.28;100.00;98479.81;5282442;27;20099;-76
2024/02/10 00:14:02;;;;;;;7.63;3.20;;;;;;;12.32;100.00;98482.88;5282644;27;20512;-76
2024/02/10 00:16:33;;;;;;;8.77;3.00;;;;;;;12.35;100.00;98488.59;5279778;27;20061;-76
2024/02/10 00:19:09;;;;;;;7.78;2.65;;;;;;;12.30;100.00;98487.66;5272359;28;20020;-76
2024/02/10 00:21:41;;;;;;;8.43;2.78;;;;;;;12.24;100.00;98489.41;5279144;28;20039;-75
2024/02/10 00:24:12;;;;;;;6.20;2.28;;;;;;;12.26;100.00;98486.50;5280142;27;20032;-76
2024/02/10 00:26:43;;;;;;;6.53;2.40;;;;;;;12.24;100.00;98483.22;5268668;28;20020;-76
2024/02/10 00:29:13;;;;;;;9.18;3.20;;;;;;;12.30;100.00;98484.97;5281954;27;20564;-75
2024/02/10 00:31:44;;;;;;;8.52;2.40;;;;;;;12.37;100.00;98478.44;5287156;27;20032;-76
2024/02/10 00:34:15;;;;;;;12.38;3.30;;;;;;;12.35;100.00;98477.84;5286181;27;20019;-76
2024/02/10 00:36:45;;;;;;;9.52;2.88;;;;;;;11.85;100.00;98486.38;5288270;27;20043;-76
2024/02/10 00:39:16;;;;;;;8.77;3.05;;;;;;;11.71;100.00;98476.84;5285234;27;20085;-76
2024/02/10 00:41:48;;;;;;;5.25;2.55;;;;;;;11.67;100.00;98473.81;5286574;27;20031;-76
2024/02/10 00:44:20;;;;;;;8.90;2.35;;;;;;;11.96;100.00;98474.00;5283902;27;20479;-75
2024/02/10 00:46:51;;;;;;;7.63;2.83;;;;;;;12.09;100.00;98473.75;5283203;27;20032;-76
2024/02/10 00:49:24;;;;;;;11.38;2.58;;;;;;;12.18;100.00;98474.22;5280505;28;20046;-76
2024/02/10 00:51:55;;;;;;;7.97;2.50;;;;;;;12.16;100.00;98473.66;5282461;27;20019;-75
2024/02/10 00:54:29;;;;;;;8.00;2.50;;;;;;;12.13;100.00;98477.63;5283613;27;20045;-75
2024/02/10 00:56:59;;;;;;;6.85;2.40;;;;;;;12.08;100.00;98474.00;5286841;27;20031;-76
2024/02/10 00:59:31;;;;;;;7.90;2.88;;;;;;;12.05;100.00;98466.38;5285073;27;20025;-75
2024/02/10 01:02:05;;;;;;;5.32;1.98;;;;;;;12.07;100.00;98467.00;5278247;28;20093;-75
2024/02/10 01:04:36;;;;;;;9.13;2.72;;;;;;;11.69;100.00;98470.88;5283771;28;20027;-76
2024/02/10 01:07:06;;;;;;;9.43;2.42;;;;;;;11.56;100.00;98461.19;5282546;28;20027;-76
2024/02/10 01:09:40;;;;;;;6.03;2.45;;;;;;;11.46;100.00;98466.28;5288862;27;20098;-75
2024/02/10 01:12:11;;;;;;;13.50;2.88;;;;;;;11.72;100.00;98466.94;5287777;28;20038;-75
2024/02/10 01:14:41;;;;;;;8.55;2.13;;;;;;;11.78;100.00;98468.69;5286374;27;20388;-76
2024/02/10 01:17:13;;;;;;;5.65;1.95;;;;;;;11.81;100.00;98468.22;5283292;28;20494;-76
2024/02/10 01:19:49;;;;;;;7.80;2.60;;;;;;;11.77;100.00;98472.41;5278861;28;20103;-76
2024/02/10 01:22:23;;;;;;;5.78;2.28;;;;;;;11.74;100.00;98483.63;5287468;28;20034;-76
2024/02/10 01:24:54;;;;;;;8.38;3.28;;;;;;;11.73;100.00;98471.25;5285535;28;20080;-75
2024/02/10 01:27:26;;;;;;;4.45;2.13;;;;;;;11.61;100.00;98482.78;5283406;28;20019;-75
2024/02/10 01:29:57;;;;;;;6.32;2.35;;;;;;;11.75;100.00;98477.22;5280657;28;20019;-76
2024/02/10 01:32:27;;;;;;;8.48;2.35;;;;;;;11.71;100.00;98478.72;5292522;27;20030;-75
2024/02/10 01:34:59;;;;;;;8.70;2.35;;;;;;;11.72;100.00;98481.16;5284251;27;20042;-75
2024/02/10 01:37:30;;;;;;;4.75;1.88;;;;;;;11.77;100.00;98477.78;5293356;27;20027;-76
2024/02/10 01:40:01;;;;;;;9.05;2.70;;;;;;;11.82;100.00;98480.63;5284904;27;20747;-76
2024/02/10 01:42:38;;;;;;;5.43;2.40;;;;;;;11.85;100.00;98475.63;5288157;27;20073;-76
2024/02/10 01:45:12;;;;;;;8.57;2.30;;;;;;;11.76;100.00;98468.91;5291540;27;20032;-76
2024/02/10 01:47:43;;;;;;;7.03;2.55;;;;;;;11.68;100.00;98474.63;5286111;27;20058;-76
2024/02/10 01:50:14;;;;;;;7.55;2.30;;;;;;;11.69;100.00;98478.94;5289245;27;20015;-76
2024/02/10 01:52:45;;;;;;;5.72;2.22;;;;;;;11.55;100.00;98478.34;5286892;27;20019;-76
2024/02/10 01:55:15;;;;;;;6.18;2.40;;;;;;;11.58;100.00;98469.00;5288012;27;20050;-76
2024/02/10 01:57:53;;;;;;;7.35;2.40;;;;;;;11.57;100.00;98468.19;5290968;27;20031;-76
2024/02/10 02:00:25;;;;;;;6.50;2.17;;;;;;;11.58;100.00;98469.81;5278160;28;20487;-75
2024/02/10 02:02:59;;;;;;;6.85;2.20;;;;;;;11.43;100.00;98471.28;5287009;27;20031;-76
2024/02/10 02:05:35;;;;;;;7.05;2.70;;;;;;;11.41;100.00;98464.28;5288898;27;20027;-76
2024/02/10 02:08:06;;;;;;;4.60;2.22;;;;;;;11.43;100.00;98457.88;5290483;27;20030;-76
2024/02/10 02:10:47;;;;;;;6.75;2.47;;;;;;;11.44;100.00;98460.31;5284961;28;20101;-75
2024/02/10 02:13:22;;;;;;;4.82;2.42;;;;;;;11.37;100.00;98457.75;5284526;28;20024;-76
2024/02/10 02:15:57;;;;;;;4.70;2.45;;;;;;;11.32;100.00;98454.94;5289078;27;20077;-76
2024/02/10 02:18:28;;;;;;;5.45;2.20;;;;;;;11.28;100.00;98460.97;5283554;28;20027;-75
2024/02/10 02:21:06;;;;;;;5.45;1.92;;;;;;;11.23;100.00;98453.59;5283912;28;20030;-76
2024/02/10 02:23:36;;;;;;;7.82;2.17;;;;;;;11.23;100.00;98460.84;5285093;27;20618;-76
2024/02/10 02:26:10;;;;;;;10.98;2.95;;;;;;;11.12;100.00;98462.44;5286736;27;20069;-76
2024/02/10 02:28:42;;;;;;;8.93;3.10;;;;;;;11.09;100.00;98468.25;5289880;27;20423;-76
2024/02/10 02:31:19;;;;;;;5.25;2.20;;;;;;;11.17;100.00;98465.25;5286806;27;20041;-76
2024/02/10 02:33:51;;;;;;;4.97;1.95;;;;;;;11.14;100.00;98468.41;5285525;27;20023;-76
2024/02/10 02:36:22;;;;;;;7.85;2.35;;;;;;;11.06;100.00;98474.91;5284924;27;20031;-76
2024/02/10 02:38:52;;;;;;;8.32;2.38;;;;;;;11.06;100.00;98472.22;5286619;27;20047;-75
2024/02/10 02:41:23;;;;;;;6.03;2.00;;;;;;;10.97;100.00;98464.72;5284679;28;20449;-76
2024/02/10 02:43:53;;;;;;;4.35;2.10;;;;;;;10.98;100.00;98469.84;5265062;28;20052;-76
2024/02/10 02:46:24;;;;;;;6.05;2.35;;;;;;;10.90;100.00;98467.50;5288355;27;20442;-75
2024/02/10 02:48:55;;;;;;;4.45;1.75;;;;;;;10.91;100.00;98469.13;5287458;27;20031;-75
2024/02/10 02:51:25;;;;;;;6.90;2.13;;;;;;;10.84;100.00;98463.00;5287557;27;20564;-75
2024/02/10 02:53:57;;;;;;;5.60;2.33;;;;;;;10.82;100.00;98457.06;5282225;27;20031;-75
2024/02/10 02:56:28;;;;;;;8.63;2.50;;;;;;;10.71;100.00;98460.50;5283791;27;20460;-75
2024/02/10 02:58:58;;;;;;;6.32;2.00;;;;;;;10.71;100.00;98468.56;5286236;28;20110;-76
2024/02/10 03:01:30;;;;;;;5.18;1.90;;;;;;;10.73;100.00;98461.91;5286225;27;20710;-76
2024/02/10 03:04:01;;;;;;;7.97;2.33;;;;;;;10.66;100.00;98460.38;5282285;27;20511;-75
2024/02/10 03:06:31;;;;;;;8.40;2.22;;;;;;;10.55;100.00;98454.72;5287262;27;20106;-75
2024/02/10 03:09:02;;;;;;;5.57;2.17;;;;;;;10.52;100.00;98455.16;5283513;27;20025;-76
2024/02/10 03:11:33;;;;;;;4.43;1.80;;;;;;;10.47;100.00;98455.00;5286929;27;20019;-76
2024/02/10 03:14:04;;;;;;;6.53;2.65;;;;;;;10.42;100.00;98446.81;5283681;28;20019;-76
2024/02/10 03:16:34;;;;;;;5.72;2.20;;;;;;;10.34;100.00;98456.00;5284820;28;20028;-75
2024/02/10 03:19:05;;;;;;;4.90;2.13;;;;;;;10.30;100.00;98449.44;5287905;27;20028;-75
2024/02/10 03:21:36;;;;;;;6.72;2.13;;;;;;;10.27;100.00;98449.88;5280622;28;20020;-76
2024/02/10 03:24:07;;;;;;;6.60;1.98;;;;;;;10.23;100.00;98445.94;5284002;28;20377;-75
2024/02/10 03:26:37;;;;;;;5.05;2.15;;;;;;;10.19;100.00;98443.94;5292203;27;20469;-75
2024/02/10 03:29:09;;;;;;;4.90;1.77;;;;;;;10.21;100.00;98447.22;5282464;28;20232;-76
2024/02/10 03:31:40;;;;;;;7.22;2.03;;;;;;;10.25;100.00;98443.91;5281991;28;20016;-75
2024/02/10 03:34:11;;;;;;;6.60;2.13;;;;;;;10.27;100.00;98446.38;5282306;28;20023;-75
2024/02/10 03:36:41;;;;;;;4.05;2.03;;;;;;;10.21;100.00;98447.22;5279832;28;20020;-75
2024/02/10 03:39:12;;;;;;;6.55;2.35;;;;;;;10.17;100.00;98446.84;5286091;27;20569;-76
2024/02/10 03:41:42;;;;;;;6.75;2.08;;;;;;;10.16;100.00;98449.75;5285247;27;20019;-75
2024/02/10 03:44:13;;;;;;;5.70;2.20;;;;;;;10.12;100.00;98444.00;5283777;27;20035;-75
2024/02/10 03:46:44;;;;;;;5.70;2.20;;;;;;;10.07;100.00;98446.53;5287228;27;20034;-75
2024/02/10 03:49:15;;;;;;;4.10;1.83;;;;;;;10.13;100.00;98451.81;5281584;27;20024;-75
2024/02/10 03:51:46;;;;;;;3.78;2.20;;;;;;;10.16;100.00;98452.44;5284609;28;20043;-75
2024/02/10 03:54:16;;;;;;;4.35;2.22;;;;;;;10.16;100.00;98455.94;5290605;27;20019;-75
2024/02/10 03:56:47;;;;;;;4.20;2.03;;;;;;;10.18;100.00;98445.81;5282105;27;20106;-78
2024/02/10 03:59:18;;;;;;;7.28;2.40;;;;;;;10.18;100.00;98450.34;5286609;27;20024;-76
2024/02/10 04:01:48;;;;;;;8.02;2.42;;;;;;;10.27;100.00;98449.03;5282143;27;20028;-76
2024/02/10 04:04:19;;;;;;;6.65;1.90;;;;;;;10.33;100.00;98454.31;5291029;27;20469;-76
2024/02/10 04:06:50;;;;;;;10.20;2.45;;;;;;;10.31;100.00;98453.75;5289275;27;20538;-75
2024/02/10 04:09:21;;;;;;;4.82;1.88;;;;;;;10.31;100.00;98461.78;5286668;27;20103;-78
2024/02/10 04:11:51;;;;;;;5.75;2.05;;;;;;;10.41;100.00;98455.91;5282937;27;20023;-75
2024/02/10 04:14:22;;;;;;;5.07;2.55;;;;;;;10.46;100.00;98455.25;5290657;27;20096;-75
2024/02/10 04:16:52;;;;;;;4.30;2.10;;;;;;;10.46;100.00;98461.41;5288982;27;20047;-75
2024/02/10 04:19:26;;;;;;;6.15;2.22;;;;;;;10.47;100.00;98463.06;5289044;27;20091;-79
2024/02/10 04:21:57;;;;;;;9.43;2.40;;;;;;;10.48;100.00;98456.63;5280947;28;20058;-75
2024/02/10 04:24:27;;;;;;;6.30;1.95;;;;;;;10.42;100.00;98462.09;5284527;27;20484;-75
2024/02/10 04:26:58;;;;;;;4.05;2.15;;;;;;;10.58;100.00;98458.78;5287422;27;20164;-75
2024/02/10 04:29:28;;;;;;;6.32;2.22;;;;;;;10.62;100.00;98460.81;5288984;27;20012;-75
2024/02/10 04:31:59;;;;;;;8.45;2.47;;;;;;;10.71;100.00;98457.84;5286801;27;20023;-75
2024/02/10 04:34:31;;;;;;;8.32;2.17;;;;;;;10.75;100.00;98453.66;5282904;28;20016;-78
2024/02/10 04:37:01;;;;;;;3.72;1.88;;;;;;;10.71;100.00;98455.16;5284950;27;20023;-75
2024/02/10 04:39:34;;;;;;;6.55;2.22;;;;;;;10.70;100.00;98459.69;5283903;27;20519;-75
2024/02/10 04:42:05;;;;;;;5.97;2.05;;;;;;;10.72;100.00;98470.19;5285457;27;20016;-75
2024/02/10 04:44:38;;;;;;;7.43;2.03;;;;;;;10.72;100.00;98472.88;5283463;27;20026;-79
2024/02/10 04:47:09;;;;;;;6.30;2.00;;;;;;;10.78;100.00;98474.66;5283816;28;20156;-75
2024/02/10 04:49:40;;;;;;;6.90;2.00;;;;;;;10.68;100.00;98469.81;5288174;27;20490;-76
2024/02/10 04:52:10;;;;;;;4.38;1.95;;;;;;;10.81;100.00;98474.22;5288765;27;20048;-75
2024/02/10 04:54:41;;;;;;;9.27;2.10;;;;;;;10.80;100.00;98476.06;5287145;27;20035;-75
2024/02/10 04:57:11;;;;;;;9.88;2.20;;;;;;;10.86;100.00;98477.03;5280565;28;20082;-75
2024/02/10 04:59:42;;;;;;;6.03;1.92;;;;;;;10.87;100.00;98479.47;5287724;27;20027;-77
2024/02/10 05:02:12;;;;;;;4.63;2.08;;;;;;;10.88;100.00;98477.63;5285236;27;20086;-75
2024/02/10 05:04:43;;;;;;;5.65;2.47;;;;;;;10.91;100.00;98474.50;5288242;28;20102;-75
2024/02/10 05:07:17;;;;;;;7.03;2.60;;;;;;;10.92;100.00;98478.00;5287532;27;20027;-75
2024/02/10 05:09:48;;;;;;;7.85;2.28;;;;;;;10.89;100.00;98481.94;5287521;27;20057;-78
2024/02/10 05:12:18;;;;;;;6.20;2.20;;;;;;;10.90;100.00;98483.59;5289306;27;20032;-77
2024/02/10 05:14:49;;;;;;;8.02;2.10;;;;;;;10.97;100.00;98476.25;5290517;27;20503;-75
2024/02/10 05:17:19;;;;;;;8.07;2.65;;;;;;;11.01;100.00;98468.59;5294408;27;20035;-75
2024/02/10 05:19:50;;;;;;;4.85;2.22;;;;;;;10.92;100.00;98476.13;5291343;27;20050;-75
2024/02/10 05:22:22;;;;;;;4.72;2.28;;;;;;;10.96;100.00;98474.63;5293444;27;20032;-77
2024/02/10 05:24:53;;;;;;;3.10;2.03;;;;;;;11.01;100.00;98469.41;5288238;27;20019;-75
2024/02/10 05:27:23;;;;;;;5.80;2.30;;;;;;;11.02;100.00;98473.72;5294615;27;20028;-75
2024/02/10 05:29:55;;;;;;;5.05;2.58;;;;;;;11.09;100.00;98471.78;5288900;27;20027;-75
2024/02/10 05:32:28;;;;;;;4.78;2.50;;;;;;;11.07;100.00;98471.19;5286317;27;20015;-78
2024/02/10 05:34:59;;;;;;;4.38;2.20;;;;;;;11.08;100.00;98467.44;5290491;27;20043;-78
2024/02/10 05:37:38;;;;;;;7.50;2.42;;;;;;;11.10;100.00;98473.41;5289747;27;20048;-75
2024/02/10 05:40:09;;;;;;;6.65;2.67;;;;;;;11.08;100.00;98475.50;5293915;27;20076;-78
2024/02/10 05:42:45;;;;;;;5.70;2.45;;;;;;;11.08;100.00;98475.50;5289371;27;20097;-75
2024/02/10 05:45:21;;;;;;;;;;;;;;;11.06;100.00;98472.22;5289223;27;20089;-76
2024/02/10 05:47:52;;;;;;;7.43;2.38;;;;;;;11.11;100.00;98472.38;5285961;27;20331;-75
2024/02/10 05:50:24;;;;;;;5.78;2.78;;;;;;;11.13;100.00;98475.63;5284891;27;20019;-75
2024/02/10 05:52:57;;;;;;;6.28;2.25;;;;;;;11.12;100.00;98470.50;5289882;27;20016;-75
2024/02/10 05:55:29;;;;;;;4.22;2.33;;;;;;;11.08;100.00;98480.03;5288689;27;20454;-77
2024/02/10 05:58:01;;;;;;;8.43;2.55;;;;;;;11.04;100.00;98476.97;5290877;27;20019;-75
2024/02/10 06:00:33;;;;;;;6.63;2.90;;;;;;;11.07;100.00;98471.19;5286982;27;20080;-75
2024/02/10 06:03:04;;;;;;;8.75;2.35;;;;;;;11.09;100.00;98470.94;5290533;27;20047;-77
2024/02/10 06:05:34;;;;;;;6.43;2.72;;;;;;;11.10;100.00;98473.41;5285687;27;20172;-75
2024/02/10 06:08:10;;;;;;;5.28;2.50;;;;;;;11.08;100.00;98478.19;5289801;27;20110;-75
2024/02/10 06:10:41;;;;;;;7.00;2.80;;;;;;;11.06;100.00;98477.59;5283445;27;20405;-75
2024/02/10 06:13:14;;;;;;;7.60;2.38;;;;;;;11.04;100.00;98489.59;5285304;27;20080;-79
2024/02/10 06:15:46;;;;;;;8.15;2.83;;;;;;;11.04;100.00;98494.94;5292585;27;20397;-75
2024/02/10 06:18:17;;;;;;;9.80;2.90;;;;;;;11.03;100.00;98507.56;5285800;27;20154;-75
2024/02/10 06:20:47;;;;;;;6.45;2.80;;;;;;;11.02;100.00;98511.28;5288023;27;20110;-78
2024/02/10 06:23:21;;;;;;;5.53;2.33;;;;;;;11.03;100.00;98504.88;5284751;27;20094;-76
2024/02/10 06:25:54;;;;;;;7.15;2.90;;;;;;;11.08;100.00;98502.31;5283655;28;20020;-78
2024/02/10 06:28:25;;;;;;;6.20;3.05;;;;;;;11.07;100.00;98507.94;5284501;27;20502;-75
2024/02/10 06:30:55;;;;;;;7.55;2.90;;;;;;;11.03;100.00;98507.56;5287486;27;20028;-75
2024/02/10 06:33:28;;;;;;;16.52;8.02;;;;;;;11.02;100.00;98510.47;5280588;28;20106;-77
2024/02/10 06:36:00;;;;;;;11.48;3.53;;;;;;;10.96;100.00;98509.50;5284401;27;20107;-75
2024/02/10 06:38:36;;;;;;;5.35;2.80;;;;;;;10.98;100.00;98509.28;5286337;27;20365;-75
2024/02/10 06:41:08;;;;;;;7.05;2.65;;;;;;;10.84;100.00;98506.78;5285515;28;20445;-75
2024/02/10 06:43:38;;;;;;;5.72;2.83;;;;;;;10.77;100.00;98510.56;5285845;28;20389;-76
2024/02/10 06:46:10;;;;;;;6.70;2.60;;;;;;;10.66;100.00;98517.50;5281826;28;20036;-75
2024/02/10 06:48:41;;;;;;;7.63;2.75;;;;;;;10.51;100.00;98509.81;5284955;27;20030;-75
2024/02/10 06:51:11;;;;;;;5.75;2.83;;;;;;;10.39;100.00;98514.25;5283029;27;20476;-75
2024/02/10 06:53:42;;;;;;;8.80;3.08;;;;;;;10.31;100.00;98519.91;5282544;28;20540;-77
2024/02/10 06:56:12;;;;;;;4.75;2.70;;;;;;;10.29;100.00;98514.78;5286180;28;20080;-78
2024/02/10 06:58:43;;;;;;;9.85;2.92;;;;;;;10.28;100.00;98521.16;5281662;28;20472;-76
2024/02/10 07:01:13;;;;;;;7.47;2.85;;;;;;;10.32;100.00;98518.88;5285140;27;20620;-75
2024/02/10 07:03:45;;;;;;;8.02;2.65;;;;;;;10.37;100.00;98519.84;5285598;27;20027;-75
2024/02/10 07:06:17;;;;;;;5.10;2.60;;;;;;;10.43;100.00;98526.19;5283837;28;20051;-75
2024/02/10 07:08:48;;;;;;;7.13;2.97;;;;;;;10.47;100.00;98531.94;5285935;27;20035;-75
2024/02/10 07:11:18;;;;;;;10.15;2.88;;;;;;;10.48;100.00;98538.91;5283979;27;20054;-77
2024/02/10 07:13:49;;;;;;;5.13;2.25;;;;;;;10.45;100.00;98534.03;5284992;28;20081;-77
2024/02/10 07:16:20;;;;;;;5.38;2.60;;;;;;;10.42;100.00;98534.44;5284850;28;20118;-79
2024/02/10 07:18:51;;;;;;;5.18;2.88;;;;;;;10.43;100.00;98542.25;5285062;27;20026;-79
2024/02/10 07:21:21;;;;;;;8.15;4.68;;;;;;;10.49;100.00;98541.41;5283032;28;20119;-75
2024/02/10 07:23:52;;;;;;;8.88;3.45;;;;;;;10.57;100.00;98549.13;5282590;27;20039;-76
2024/02/10 07:26:22;;;;;;;6.60;2.67;;;;;;;10.58;100.00;98552.63;5283645;28;20068;-78
2024/02/10 07:28:53;;;;;;;12.77;3.08;;;;;;;10.70;100.00;98556.22;5286466;28;20032;-76
2024/02/10 07:31:24;;;;;;;7.32;3.10;;;;;;;10.76;100.00;98559.88;5279923;28;20039;-75
2024/02/10 07:33:58;;;;;;;6.30;3.90;;;;;;;10.72;100.00;98562.19;5284385;28;20035;-75
2024/02/10 07:36:34;;;;;;;5.25;2.75;;;;;;;10.78;100.00;98555.91;5284769;27;20024;-77
2024/02/10 07:39:06;;;;;;;;;;;;;;;10.85;100.00;98558.56;5281804;28;20477;-75
2024/02/10 07:41:38;;;;;;;6.78;3.15;;;;;;;10.88;100.00;98561.59;5279991;28;20276;-75
2024/02/10 07:44:12;;;;;;;6.05;2.63;;;;;;;11.09;100.00;98562.16;5272584;28;20043;-75
2024/02/10 07:46:43;;;;;;;6.85;2.70;;;;;;;11.18;100.00;98560.00;5275754;28;20034;-77
2024/02/10 07:49:14;;;;;;;10.18;3.20;;;;;;;11.25;100.00;98555.41;5285504;27;20031;-75
2024/02/10 07:51:47;;;;;;;7.22;2.75;;;;;;;11.33;100.00;98563.94;5285801;27;20054;-75
2024/02/10 07:54:19;;;;;;;9.57;3.47;;;;;;;11.35;100.00;98571.78;5281162;28;20507;-75
2024/02/10 07:56:50;;;;;;;7.03;3.22;;;;;;;11.41;100.00;98569.00;5284859;27;20067;-75
2024/02/10 07:59:20;;;;;;;8.88;2.80;;;;;;;11.44;100.00;98570.41;5283516;27;20046;-75
2024/02/10 08:01:51;;;;;;;6.10;3.15;;;;;;;11.50;100.00;98572.19;5268669;28;20517;-75
2024/02/10 08:04:21;;;;;;;4.93;2.72;;;;;;;11.53;100.00;98571.72;5289163;27;20131;-77
2024/02/10 08:06:52;;;;;;;6.70;3.00;;;;;;;11.53;100.00;98576.28;5280697;28;20024;-77
2024/02/10 08:09:23;;;;;;;6.85;2.67;;;;;;;11.62;100.00;98581.09;5287728;27;20080;-79
2024/02/10 08:11:54;;;;;;;8.73;2.97;;;;;;;11.72;100.00;98580.56;5280311;28;20055;-75
2024/02/10 08:14:25;;;;;;;7.00;3.20;;;;;;;11.87;100.00;98575.59;5286236;27;20107;-76
2024/02/10 08:16:56;;;;;;;7.35;3.10;;;;;;;12.04;100.00;98570.38;5285705;27;20023;-78
2024/02/10 08:19:29;;;;;;;5.15;3.03;;;;;;;12.23;100.00;98575.66;5283694;27;20093;-78
2024/02/10 08:22:02;;;;;;;7.93;3.22;;;;;;;12.30;100.00;98585.28;5282037;28;20434;-78
2024/02/10 08:24:34;;;;;;;5.05;2.40;;;;;;;12.41;100.00;98579.09;5281680;27;20085;-75
2024/02/10 08:27:08;;;;;;;5.25;2.38;;;;;;;12.53;100.00;98584.47;5284138;27;20019;-76
2024/02/10 08:29:39;;;;;;;6.72;2.28;;;;;;;12.58;100.00;98587.25;5279793;27;20530;-79
2024/02/10 08:32:11;;;;;;;6.07;2.50;;;;;;;12.66;100.00;98588.78;5283053;27;20028;-75
2024/02/10 08:34:43;;;;;;;6.78;2.67;;;;;;;12.73;100.00;98577.91;5284037;27;20522;-76
2024/02/10 08:37:14;;;;;;;6.05;2.47;;;;;;;12.77;100.00;98573.69;5281665;27;20452;-75
2024/02/10 08:39:46;;;;;;;8.38;2.90;;;;;;;12.79;100.00;98583.16;5281084;27;20385;-75
2024/02/10 08:42:16;;;;;;;5.40;2.30;;;;;;;12.73;100.00;98591.34;5273528;27;20044;-77
2024/02/10 08:44:47;;;;;;;5.32;2.67;;;;;;;12.77;100.00;98587.97;5277193;28;20051;-75
2024/02/10 08:47:17;;;;;;;7.15;2.60;;;;;;;12.64;100.00;98583.63;5282424;27;20704;-75
2024/02/10 08:49:49;;;;;;;4.38;2.55;;;;;;;12.57;100.00;98585.63;5282044;27;20049;-79
2024/02/10 08:52:19;;;;;;;5.43;2.30;;;;;;;12.65;100.00;98592.50;5276373;27;20027;-77
2024/02/10 08:54:50;;;;;;;8.98;2.67;;;;;;;12.85;100.00;98579.53;5287979;27;20212;-75
2024/02/10 08:57:23;;;;;;;7.22;2.50;;;;;;;12.98;100.00;98591.09;5274473;27;20085;-77
2024/02/10 08:59:55;;;;;;;4.05;2.20;;;;;;;13.16;100.00;98589.06;5280189;28;20404;-77
2024/02/10 09:02:27;;;;;;;7.05;2.67;;;;;;;13.32;100.00;98586.72;5275516;28;20023;-76
2024/02/10 09:04:59;;;;;;;10.50;2.80;;;;;;;13.36;100.00;98588.72;5284563;28;20032;-75
2024/02/10 09:07:29;;;;;;;4.47;2.45;;;;;;;13.68;100.00;98591.72;5275757;28;20028;-76
2024/02/10 09:10:00;;;;;;;5.72;2.25;;;;;;;13.80;100.00;98604.31;5279944;28;20514;-75
2024/02/10 09:12:30;;;;;;;6.97;2.55;;;;;;;13.87;100.00;98600.44;5281148;28;20023;-79
2024/02/10 09:15:01;;;;;;;6.60;2.80;;;;;;;14.12;100.00;98600.06;5282687;28;20023;-77
2024/02/10 09:17:31;;;;;;;7.57;2.60;;;;;;;14.43;100.00;98601.38;5285024;28;20024;-76
2024/02/10 09:20:08;;;;;;;4.15;2.58;;;;;;;14.49;100.00;98605.81;5279051;28;20045;-75
2024/02/10 09:22:38;;;;;;;4.20;2.50;;;;;;;14.60;100.00;98609.47;5282597;28;20029;-79
2024/02/10 09:25:10;;;;;;;9.40;2.50;;;;;;;14.58;100.00;98608.13;5278910;28;20039;-77
2024/02/10 09:27:40;;;;;;;8.23;2.42;;;;;;;14.57;100.00;98614.59;5280302;28;20059;-76
2024/02/10 09:30:12;;;;;;;5.55;2.20;;;;;;;14.46;100.00;98613.56;5283615;28;20118;-78
2024/02/10 09:32:45;;;;;;;5.47;2.80;;;;;;;14.39;100.00;98610.22;5277107;28;20020;-76
2024/02/10 09:35:15;;;;;;;5.38;2.60;;;;;;;14.28;100.00;98613.81;5280901;27;20027;-76
2024/02/10 09:37:46;;;;;;;5.32;2.67;;;;;;;14.15;100.00;98621.13;5273832;28;20114;-76
2024/02/10 09:40:19;;;;;;;7.55;2.45;;;;;;;14.20;100.00;98620.41;5273628;28;20028;-78
2024/02/10 09:42:53;;;;;;;8.02;2.63;;;;;;;14.07;100.00;98618.03;5277562;27;20027;-76
2024/02/10 09:45:24;;;;;;;4.50;2.47;;;;;;;14.09;100.00;98619.41;5279689;28;20123;-76
2024/02/10 09:47:57;;;;;;;5.28;2.67;;;;;;;14.25;100.00;98620.50;5279550;28;20031;-76
2024/02/10 09:50:31;;;;;;;5.60;2.30;;;;;;;13.99;100.00;98624.63;5277480;28;20028;-76
2024/02/10 09:53:02;;;;;;;6.63;2.40;;;;;;;13.96;100.00;98614.34;5280768;28;20024;-76
2024/02/10 09:55:32;;;;;;;3.97;2.22;;;;;;;13.82;100.00;98610.31;5280455;27;20030;-76
2024/02/10 09:58:06;;;;;;;5.80;2.33;;;;;;;13.90;100.00;98610.72;5283870;28;20034;-76
2024/02/10 10:00:37;;;;;;;3.72;2.20;;;;;;;13.83;100.00;98614.63;5281708;27;20028;-76
2024/02/10 10:03:08;;;;;;;3.97;2.35;;;;;;;13.60;100.00;98605.56;5279101;28;20488;-76
2024/02/10 10:05:45;;;;;;;4.80;2.30;;;;;;;13.40;100.00;98600.63;5285288;27;20536;-79
2024/02/10 10:08:21;;;;;;;6.38;2.50;;;;;;;13.37;100.00;98600.28;5287941;27;20032;-77
2024/02/10 10:10:53;;;;;;;6.05;3.03;;;;;;;13.36;100.00;98599.47;5281554;27;20027;-76
2024/02/10 10:13:25;;;;;;;5.65;2.53;;;;;;;13.46;100.00;98602.38;5280251;27;20019;-77
2024/02/10 10:15:57;;;;;;;5.78;2.30;;;;;;;13.55;100.00;98612.75;5283057;27;20062;-78
2024/02/10 10:18:29;;;;;;;5.18;2.35;;;;;;;13.68;100.00;98607.91;5282095;27;20016;-77
2024/02/10 10:21:00;;;;;;;4.55;2.38;;;;;;;13.73;100.00;98609.88;5284127;28;20123;-78
2024/02/10 10:23:33;;;;;;;5.00;2.55;;;;;;;13.81;100.00;98608.69;5282769;27;20020;-76
2024/02/10 10:26:05;;;;;;;4.35;2.25;;;;;;;13.91;100.00;98612.38;5285909;28;20096;-76
2024/02/10 10:28:36;;;;;;;4.30;2.80;;;;;;;14.03;100.00;98603.41;5282844;27;20016;-79
2024/02/10 10:31:07;;;;;;;4.47;2.15;;;;;;;14.19;100.00;98602.59;5283626;28;20473;-76
2024/02/10 10:33:40;;;;;;;5.68;2.50;;;;;;;14.16;100.00;98598.53;5279535;27;20477;-76
2024/02/10 10:36:15;;;;;;;3.70;2.15;;;;;;;14.28;100.00;98597.63;5284019;28;20032;-77
2024/02/10 10:38:47;;;;;;;4.82;2.42;;;;;;;14.38;100.00;98595.09;5284415;27;20496;-78
2024/02/10 10:41:22;;;;;;;4.80;2.70;;;;;;;14.41;100.00;98590.03;5279620;28;20032;-76
2024/02/10 10:43:55;;;;;;;;;;;;;;;14.51;100.00;98586.72;5284225;28;20448;-76
2024/02/10 10:46:25;;;;;;;5.57;2.40;;;;;;;14.57;100.00;98588.41;5281047;28;20373;-76
2024/02/10 10:48:56;;;;;;;4.85;2.35;;;;;;;14.62;100.00;98580.41;5281882;28;20089;-76
2024/02/10 10:51:44;;;;;;;3.55;2.05;;;;;;;14.71;100.00;98583.50;5284696;28;20023;-76
2024/02/10 10:54:17;;;;;;;4.10;2.20;;;;;;;14.77;100.00;98587.91;5278689;28;20059;-77
2024/02/10 10:56:48;;;;;;;4.97;2.33;;;;;;;14.78;100.00;98592.22;5283093;28;20031;-76
2024/02/10 10:59:20;;;;;;;5.13;2.42;;;;;;;14.85;100.00;98594.72;5284489;27;20020;-78
2024/02/10 11:01:53;;;;;;;4.18;2.50;;;;;;;14.89;100.00;98593.19;5283658;27;20495;-78
2024/02/10 11:04:25;;;;;;;5.20;2.17;;;;;;;14.91;100.00;98599.13;5284917;28;20035;-76
2024/02/10 11:06:56;;;;;;;5.68;2.20;;;;;;;14.84;100.00;98588.53;5280126;28;20115;-76
2024/02/10 11:09:28;;;;;;;4.20;2.33;;;;;;;14.92;100.00;98593.50;5286087;27;20110;-76
2024/02/10 11:12:02;;;;;;;3.78;2.33;;;;;;;14.99;100.00;98587.91;5278783;28;20431;-80
2024/02/10 11:14:33;;;;;;;3.63;2.08;;;;;;;14.99;100.00;98582.53;5286601;27;20050;-78
2024/02/10 11:17:12;;;;;;;5.78;2.22;;;;;;;14.92;100.00;98584.59;5284486;28;20019;-76
2024/02/10 11:19:42;;;;;;;6.90;2.05;;;;;;;14.66;100.00;98592.34;5277950;28;20027;-75
2024/02/10 11:22:13;;;;;;;3.85;2.03;;;;;;;14.76;100.00;98589.78;5285411;27;20024;-75
2024/02/10 11:24:44;;;;;;;4.22;2.05;;;;;;;14.85;100.00;98592.03;5284673;28;20032;-77
2024/02/10 11:27:15;;;;;;;5.28;1.95;;;;;;;14.70;100.00;98585.34;5284921;27;20034;-75
2024/02/10 11:29:46;;;;;;;3.70;1.95;;;;;;;14.49;100.00;98586.13;5282395;28;20019;-78
2024/02/10 11:32:18;;;;;;;5.93;2.33;;;;;;;14.54;100.00;98586.19;5280422;28;20019;-76
2024/02/10 11:34:50;;;;;;;5.38;2.20;;;;;;;14.48;100.00;98584.50;5282079;28;20034;-76
2024/02/10 11:37:20;;;;;;;5.43;1.88;;;;;;;14.46;100.00;98586.59;5284019;27;20050;-77
2024/02/10 11:39:53;;;;;;;5.63;2.20;;;;;;;14.46;100.00;98592.81;5281278;28;20026;-76
2024/02/10 11:42:23;;;;;;;3.33;1.92;;;;;;;14.52;100.00;98587.53;5281533;28;20389;-80
2024/02/10 11:44:54;;;;;;;4.57;1.80;;;;;;;14.55;100.00;98576.22;5280995;28;20046;-76
2024/02/10 11:47:27;;;;;;;4.65;2.03;;;;;;;14.66;100.00;98586.09;5282466;28;20028;-77